createdAt,value
2023-01-30T00:00:18.261Z,651.00
2023-01-30T00:01:17.923Z,646.00
2023-01-30T00:02:17.938Z,650.00
2023-01-30T00:03:17.833Z,645.00
2023-01-30T00:04:17.792Z,641.00
2023-01-30T00:05:17.813Z,649.00
2023-01-30T00:06:17.681Z,651.00
2023-01-30T00:07:17.620Z,653.00
2023-01-30T00:08:17.563Z,650.00
2023-01-30T00:09:17.518Z,633.00
2023-01-30T00:10:17.784Z,639.00
2023-01-30T00:11:17.417Z,640.00
2023-01-30T00:12:17.353Z,641.00
2023-01-30T00:13:17.319Z,644.00
2023-01-30T00:14:17.261Z,643.00
2023-01-30T00:15:17.218Z,635.00
2023-01-30T00:16:17.177Z,641.00
2023-01-30T00:17:17.129Z,645.00
2023-01-30T00:18:17.078Z,646.00
2023-01-30T00:19:17.030Z,654.00
2023-01-30T00:20:17.503Z,639.00
2023-01-30T00:21:16.924Z,634.00
2023-01-30T00:22:16.886Z,646.00
2023-01-30T00:23:16.823Z,647.00
2023-01-30T00:24:16.904Z,648.00
2023-01-30T00:25:16.854Z,647.00
2023-01-30T00:26:16.781Z,641.00
2023-01-30T00:27:16.633Z,641.00
2023-01-30T00:28:16.587Z,650.00
2023-01-30T00:29:16.546Z,651.00
2023-01-30T00:30:16.765Z,652.00
2023-01-30T00:31:16.493Z,640.00
2023-01-30T00:32:16.368Z,638.00
2023-01-30T00:33:16.327Z,647.00
2023-01-30T00:34:16.282Z,648.00
2023-01-30T00:35:16.232Z,648.00
2023-01-30T00:36:16.187Z,644.00
2023-01-30T00:37:16.139Z,632.00
2023-01-30T00:38:16.096Z,638.00
2023-01-30T00:39:16.042Z,646.00
2023-01-30T00:40:16.665Z,647.00
2023-01-30T00:41:15.934Z,649.00
2023-01-30T00:42:15.893Z,639.00
2023-01-30T00:43:15.840Z,630.00
2023-01-30T00:44:15.802Z,638.00
2023-01-30T00:45:16.263Z,642.00
2023-01-30T00:46:15.730Z,644.00
2023-01-30T00:47:15.634Z,647.00
2023-01-30T00:48:15.600Z,639.00
2023-01-30T00:49:15.546Z,629.00
2023-01-30T00:50:15.501Z,643.00
2023-01-30T00:51:15.438Z,639.00
2023-01-30T00:52:15.394Z,648.00
2023-01-30T03:21:08.505Z,633.00
2023-01-30T03:22:08.477Z,644.00
2023-01-30T03:23:08.432Z,646.00
2023-01-30T03:24:08.384Z,648.00
2023-01-30T03:25:08.361Z,636.00
2023-01-30T03:27:08.269Z,633.00
2023-01-30T03:28:08.227Z,634.00
2023-01-30T03:29:08.173Z,642.00
2023-01-30T03:30:08.139Z,645.00
2023-01-30T03:31:08.114Z,629.00
2023-01-30T03:32:08.053Z,634.00
2023-01-30T03:33:08.012Z,638.00
2023-01-30T03:34:07.965Z,643.00
2023-01-30T03:35:07.919Z,648.00
2023-01-30T03:36:07.879Z,637.00
2023-01-30T03:37:07.843Z,624.00
2023-01-30T03:38:07.803Z,632.00
2023-01-30T03:39:07.757Z,633.00
2023-01-30T03:40:07.706Z,635.00
2023-01-30T03:41:07.669Z,644.00
2023-01-30T03:42:07.630Z,634.00
2023-01-30T03:43:07.568Z,617.00
2023-01-30T03:44:07.537Z,623.00
2023-01-30T03:45:07.487Z,630.00
2023-01-30T03:46:07.477Z,634.00
2023-01-30T03:47:07.408Z,638.00
2023-01-30T03:48:07.361Z,625.00
2023-01-30T03:49:07.308Z,624.00
2023-01-30T03:50:07.265Z,631.00
2023-01-30T03:51:07.227Z,636.00
2023-01-30T03:52:07.178Z,635.00
2023-01-30T03:53:07.141Z,635.00
2023-01-30T03:54:07.100Z,624.00
2023-01-30T03:55:07.052Z,634.00
2023-01-30T03:56:07.069Z,637.00
2023-01-30T03:57:06.967Z,638.00
2023-01-30T03:58:06.931Z,641.00
2023-01-30T03:59:06.883Z,639.00
2023-01-30T04:00:06.844Z,621.00
2023-01-30T04:01:06.839Z,630.00
2023-01-30T04:02:06.825Z,634.00
2023-01-30T04:03:06.718Z,641.00
2023-01-30T04:04:06.695Z,643.00
2023-01-30T04:05:06.635Z,638.00
2023-01-30T04:06:06.600Z,629.00
2023-01-30T04:07:06.552Z,635.00
2023-01-30T04:08:06.518Z,642.00
2023-01-30T04:09:06.466Z,637.00
2023-01-30T04:10:06.423Z,641.00
2023-01-30T04:11:06.387Z,647.00
2023-01-30T04:12:06.340Z,635.00
2023-01-30T04:13:06.303Z,639.00
2023-01-30T04:14:06.258Z,644.00
2023-01-30T04:15:06.220Z,645.00
2023-01-30T04:16:06.189Z,652.00
2023-01-30T04:17:06.145Z,630.00
2023-01-30T04:18:06.096Z,619.00
2023-01-30T04:19:06.047Z,631.00
2023-01-30T04:20:06.007Z,641.00
2023-01-30T04:21:05.956Z,642.00
2023-01-30T04:22:05.917Z,645.00
2023-01-30T04:23:05.866Z,627.00
2023-01-30T04:24:05.828Z,620.00
2023-01-30T04:25:05.806Z,636.00
2023-01-30T04:26:05.758Z,631.00
2023-01-30T04:27:05.698Z,631.00
2023-01-30T04:28:05.659Z,633.00
2023-01-30T04:29:05.594Z,625.00
2023-01-30T04:30:05.566Z,633.00
2023-01-30T04:31:05.566Z,641.00
2023-01-30T04:32:05.470Z,636.00
2023-01-30T04:33:05.434Z,640.00
2023-01-30T06:00:01.603Z,671.00
2023-01-30T06:01:01.535Z,667.00
2023-01-30T06:02:01.477Z,666.00
2023-01-30T06:03:01.516Z,672.00
2023-01-30T06:04:01.441Z,659.00
2023-01-30T06:05:01.353Z,662.00
2023-01-30T06:06:01.319Z,667.00
2023-01-30T06:07:01.266Z,670.00
2023-01-30T06:08:01.226Z,666.00
2023-01-30T06:09:01.191Z,660.00
2023-01-30T06:10:01.146Z,656.00
2023-01-30T06:11:01.112Z,657.00
2023-01-30T06:12:01.059Z,658.00
2023-01-30T06:13:01.029Z,660.00
2023-01-30T06:14:00.983Z,662.00
2023-01-30T06:15:00.929Z,666.00
2023-01-30T06:16:00.903Z,660.00
2023-01-30T06:17:00.949Z,661.00
2023-01-30T06:18:00.839Z,665.00
2023-01-30T06:19:00.786Z,667.00
2023-01-30T06:20:00.767Z,663.00
2023-01-30T06:21:00.695Z,658.00
2023-01-30T06:22:00.663Z,658.00
2023-01-30T06:23:00.617Z,661.00
2023-01-30T06:24:00.642Z,664.00
2023-01-30T06:25:00.531Z,661.00
2023-01-30T06:26:02.666Z,660.00
2023-01-30T06:27:00.453Z,661.00
2023-01-30T06:28:00.493Z,658.00
2023-01-30T06:29:00.353Z,660.00
2023-01-30T06:30:00.347Z,664.00
2023-01-30T06:31:00.355Z,662.00
2023-01-30T06:32:00.237Z,661.00
2023-01-30T06:33:00.223Z,655.00
2023-01-30T06:34:00.160Z,656.00
2023-01-30T06:35:00.132Z,657.00
2023-01-30T06:36:00.141Z,659.00
2023-01-30T06:37:00.043Z,660.00
2023-01-30T06:38:00.000Z,660.00
2023-01-30T06:38:59.967Z,661.00
2023-01-30T06:39:59.933Z,664.00
2023-01-30T06:40:59.882Z,658.00
2023-01-30T06:41:59.831Z,668.00
2023-01-30T06:42:59.807Z,683.00
2023-01-30T06:43:59.781Z,666.00
2023-01-30T06:44:59.720Z,682.00
2023-01-30T06:45:59.774Z,682.00
2023-01-30T06:46:59.633Z,707.00
2023-01-30T06:47:59.596Z,737.00
2023-01-30T06:48:59.612Z,788.00
2023-01-30T06:50:59.440Z,860.00
2023-01-30T06:51:59.381Z,875.00
2023-01-30T06:52:59.340Z,895.00
2023-01-30T06:53:59.280Z,905.00
2023-01-30T06:54:59.243Z,938.00
2023-01-30T06:55:59.230Z,969.00
2023-01-30T06:56:59.149Z,1019.00
2023-01-30T06:57:59.085Z,1059.00
2023-01-30T06:58:59.046Z,1085.00
2023-01-30T06:59:59.042Z,1144.00
2023-01-30T07:00:58.952Z,1166.00
2023-01-30T07:01:58.956Z,1193.00
2023-01-30T07:03:58.827Z,1229.00
2023-01-30T07:04:58.760Z,1249.00
2023-01-30T07:05:58.712Z,1273.00
2023-01-30T07:06:58.644Z,1287.00
2023-01-30T07:07:58.589Z,1315.00
2023-01-30T07:08:58.551Z,1333.00
2023-01-30T07:10:07.296Z,1368.00
2023-01-30T07:10:59.455Z,1369.00
2023-01-30T07:11:58.381Z,1373.00
2023-01-30T07:12:58.314Z,1379.00
2023-01-30T07:13:58.265Z,1404.00
2023-01-30T07:14:58.187Z,1371.00
2023-01-30T07:15:58.136Z,1378.00
2023-01-30T07:16:58.143Z,1384.00
2023-01-30T07:17:58.017Z,1405.00
2023-01-30T07:18:57.945Z,1448.00
2023-01-30T07:19:57.879Z,1465.00
2023-01-30T07:20:57.824Z,1459.00
2023-01-30T07:21:57.759Z,1457.00
2023-01-30T07:22:57.692Z,1465.00
2023-01-30T07:23:57.629Z,1469.00
2023-01-30T07:24:57.579Z,1490.00
2023-01-30T07:25:57.530Z,1468.00
2023-01-30T07:26:57.493Z,1487.00
2023-01-30T07:27:57.374Z,1483.00
2023-01-30T07:28:57.315Z,1478.00
2023-01-30T07:29:57.257Z,1486.00
2023-01-30T07:30:57.269Z,1479.00
2023-01-30T07:31:57.211Z,1511.00
2023-01-30T07:32:57.068Z,1526.00
2023-01-30T07:33:56.992Z,1532.00
2023-01-30T07:34:56.932Z,1538.00
2023-01-30T07:35:56.924Z,1532.00
2023-01-30T07:36:56.817Z,1513.00
2023-01-30T07:37:56.749Z,1525.00
2023-01-30T07:38:56.680Z,1527.00
2023-01-30T07:39:56.620Z,1530.00
2023-01-30T07:40:56.567Z,1537.00
2023-01-30T07:41:57.073Z,1521.00
2023-01-30T07:42:56.437Z,1529.00
2023-01-30T07:43:56.456Z,1540.00
2023-01-30T07:44:56.297Z,1559.00
2023-01-30T07:45:56.220Z,1563.00
2023-01-30T07:46:56.237Z,1564.00
2023-01-30T07:47:56.262Z,1565.00
2023-01-30T07:48:57.843Z,1544.00
2023-01-30T07:49:55.959Z,1564.00
2023-01-30T07:50:55.888Z,1596.00
2023-01-30T07:51:55.845Z,1628.00
2023-01-30T07:52:55.760Z,1632.00
2023-01-30T07:53:55.703Z,1620.00
2023-01-30T07:54:55.636Z,1604.00
2023-01-30T07:55:55.563Z,1596.00
2023-01-30T07:56:55.503Z,1577.00
2023-01-30T07:57:55.424Z,1638.00
2023-01-30T07:59:55.383Z,1564.00
2023-01-30T09:32:48.646Z,1229.00
2023-01-30T09:34:48.487Z,1224.00
2023-01-30T09:36:48.312Z,1187.00
2023-01-30T09:37:48.277Z,1212.00
2023-01-30T09:38:48.165Z,1244.00
2023-01-30T09:39:48.079Z,1249.00
2023-01-30T09:40:48.006Z,1224.00
2023-01-30T09:41:47.943Z,1210.00
2023-01-30T09:42:47.859Z,1210.00
2023-01-30T09:43:47.773Z,1134.00
2023-01-30T09:44:47.692Z,1158.00
2023-01-30T09:45:47.681Z,1210.00
2023-01-30T09:46:47.547Z,1167.00
2023-01-30T09:47:47.447Z,1155.00
2023-01-30T09:48:47.369Z,1100.00
2023-01-30T09:49:47.275Z,1041.00
2023-01-30T09:50:47.207Z,1079.00
2023-01-30T09:51:47.134Z,1115.00
2023-01-30T09:52:47.077Z,1108.00
2023-01-30T09:53:46.939Z,1099.00
2023-01-30T09:54:46.872Z,1102.00
2023-01-30T09:55:46.813Z,1132.00
2023-01-30T09:56:46.724Z,1162.00
2023-01-30T09:57:46.615Z,1155.00
2023-01-30T09:58:46.532Z,1101.00
2023-01-30T09:59:46.435Z,1125.00
2023-01-30T10:00:46.351Z,1110.00
2023-01-30T10:01:46.271Z,1089.00
2023-01-30T10:02:46.165Z,1121.00
2023-01-30T10:03:46.135Z,1094.00
2023-01-30T10:05:00.059Z,1086.00
2023-01-30T10:05:46.916Z,1085.00
2023-01-30T10:06:45.831Z,1076.00
2023-01-30T10:07:45.852Z,1055.00
2023-01-30T10:08:45.649Z,1061.00
2023-01-30T10:09:45.556Z,1036.00
2023-01-30T10:10:45.476Z,1025.00
2023-01-30T10:11:45.386Z,1008.00
2023-01-30T10:18:44.792Z,932.00
2023-01-30T10:44:31.811Z,509.00
2023-01-30T11:47:27.356Z,665.00
2023-01-30T11:48:33.004Z,665.00
2023-01-30T11:50:31.657Z,679.00
2023-01-30T11:52:26.681Z,692.00
2023-01-30T11:53:26.558Z,738.00
2023-01-30T11:54:26.426Z,771.00
2023-01-30T11:55:26.288Z,777.00
2023-01-30T11:56:26.159Z,790.00
2023-01-30T11:57:26.011Z,727.00
2023-01-30T11:58:25.884Z,728.00
2023-01-30T11:59:25.748Z,711.00
2023-01-30T12:00:25.612Z,708.00
2023-01-30T12:01:25.477Z,681.00
2023-01-30T12:02:25.414Z,651.00
2023-01-30T12:03:25.284Z,645.00
2023-01-30T12:04:25.062Z,656.00
2023-01-30T12:05:24.940Z,635.00
2023-01-30T12:06:24.787Z,623.00
2023-01-30T12:07:24.674Z,598.00
2023-01-30T12:08:40.309Z,590.00
2023-01-30T12:09:25.422Z,590.00
2023-01-30T12:10:24.306Z,580.00
2023-01-30T12:11:24.177Z,565.00
2023-01-30T12:12:24.061Z,553.00
2023-01-30T12:13:23.960Z,526.00
2023-01-30T12:14:23.889Z,525.00
2023-01-30T12:15:23.785Z,525.00
2023-01-30T12:16:23.738Z,518.00
2023-01-30T12:17:23.597Z,508.00
2023-01-30T12:18:23.535Z,499.00
2023-01-30T12:19:23.423Z,494.00
2023-01-30T12:20:23.361Z,517.00
2023-01-30T12:21:23.249Z,516.00
2023-01-30T12:22:23.147Z,503.00
2023-01-30T12:23:23.055Z,508.00
2023-01-30T12:24:22.939Z,508.00
2023-01-30T12:25:22.820Z,515.00
2023-01-30T12:26:22.730Z,528.00
2023-01-30T12:27:22.632Z,498.00
2023-01-30T12:28:22.447Z,507.00
2023-01-30T12:29:22.324Z,513.00
2023-01-30T12:30:22.202Z,503.00
2023-01-30T12:31:22.085Z,528.00
2023-01-30T12:32:21.951Z,516.00
2023-01-30T12:33:21.816Z,513.00
2023-01-30T12:34:24.406Z,528.00
2023-01-30T12:35:22.616Z,510.00
2023-01-30T12:36:21.542Z,504.00
2023-01-30T12:37:21.448Z,507.00
2023-01-30T12:38:21.340Z,486.00
2023-01-30T12:39:21.274Z,460.00
2023-01-30T12:40:21.186Z,500.00
2023-01-30T12:41:21.119Z,501.00
2023-01-30T12:42:23.797Z,506.00
2023-01-30T12:43:20.980Z,496.00
2023-01-30T12:44:20.919Z,492.00
2023-01-30T12:45:21.087Z,492.00
2023-01-30T12:46:20.890Z,475.00
2023-01-30T12:47:20.745Z,488.00
2023-01-30T12:48:20.674Z,499.00
2023-01-30T12:49:20.624Z,508.00
2023-01-30T12:50:20.590Z,500.00
2023-01-30T12:51:20.539Z,504.00
2023-01-30T13:38:18.652Z,583.00
2023-01-30T13:39:18.648Z,583.00
2023-01-30T13:40:18.922Z,583.00
2023-01-30T13:41:18.543Z,584.00
2023-01-30T13:42:18.523Z,591.00
2023-01-30T13:43:18.481Z,594.00
2023-01-30T13:44:18.437Z,590.00
2023-01-30T13:45:18.387Z,591.00
2023-01-30T13:46:18.385Z,600.00
2023-01-30T13:47:18.323Z,597.00
2023-01-30T13:48:18.302Z,606.00
2023-01-30T13:57:17.994Z,609.00
2023-01-30T13:58:17.945Z,605.00
